Tiempo atmosférico en la estación meteorológica de Alberca de Zancara, Cuenca (805 m.)



Fecha
DESCASC
Temp. máxima en grados centígrados (hora)
DESCASC
Temp. mínima en grados centígrados (hora)
DESCASC
Temp. media en grados centígrados
DESCASC
Racha de viento máxima en m/sg (hora)
DESCASC
Velocidad máxima media en intervalos de 10 minutos(hora)
DESCASC
Precipitaciones diarias en mm
DESCASC
Precipitaciones de 00:00 a 06:00 en mm
DESCASC
Precipitaciones de 06:00 a 12:00 en mm
DESCASC
Precipitaciones de 12:00 a 18:00 en mm
DESCASC
Precipitaciones de 18:00 a 24:00 en mm
DESCASC
08-12-2019 8.1 (15:50) 2 (03:00) 5.1 7.5 (23:20) 4.17 (16:00) 0.4 0 0 0 0.4
07-12-2019 13.7 (15:00) 2.2 (08:30) 7.9 4.44 (03:50) 2.78 (03:50) 0 0 0 0 0
06-12-2019 10.7 (14:20) 4.6 (03:30) 7.6 7.5 (13:50) 3.89 (13:50) 0 0 0 0 0
05-12-2019 11.8 (14:20) 5.8 (00:00) 8.8 9.72 (12:20) 4.17 (10:00) 0.4 0.2 0.2 0 0
04-12-2019 9 (16:20) 5.4 (00:00) 7.2 8.61 (12:10) 5 (11:10) 2 0.2 1.4 0.2 0.2
03-12-2019 8 (13:30) 4.6 (00:00) 6.3 7.22 (12:00) 4.17 (06:30) 0.8 0.4 0 0 0.4
02-12-2019 10 (13:40) 5.8 (00:00) 7.9 10.28 (13:50) 5.83 (12:00) 2 0.4 1.2 0.4 0
01-12-2019 10.1 (12:30) 5.3 (00:00) 7.7 8.61 (01:10) 5.56 (01:20) 2.2 2 0 0 0.2
30-11-2019 13.7 (14:00) 8.5 (00:00) 11.1 10.28 (15:40) 6.39 (15:40) 0 0 0 0 0
29-11-2019 11.3 (13:50) 6.8 (00:00) 9.1 10.83 (05:50) 7.22 (05:50) 0 0 0 0 0
28-11-2019 9.5 (16:10) 5.8 (00:00) 7.7 9.17 (18:00) 6.39 (03:20) 0 0 0 0 0
27-11-2019 11.9 (14:30) 6.8 (00:00) 9.3 13.06 (02:20) 8.33 (01:20) 0.6 0.2 0.4 0 0
26-11-2019 12.9 (16:00) 9.2 (00:00) 11 12.22 (23:50) 7.5 (23:50) 1 0 0 0 1
25-11-2019 11.9 (16:40) 5.1 (00:00) 8.5 11.11 (07:50) 7.78 (03:30) 1.2 0.2 0.2 0.8 0
24-11-2019 9.6 (15:10) 0.9 (00:00) 5.3 11.39 (00:30) 7.5 (00:40) 0 0 0 0 0
23-11-2019 10.1 (14:50) 3.7 (00:00) 6.9 14.72 (13:40) 9.72 (13:50) 5 4.8 0.2 0 0
22-11-2019 11.1 (16:10) 6.6 (00:00) 8.9 14.44 (16:20) 9.17 (16:20) 15.6 0.2 0.2 14.8 0.4
21-11-2019 8.8 (14:20) 4.9 (00:00) 6.9 7.78 (18:20) 4.72 (18:20) 3.2 0.2 0.2 2.6 0.2
20-11-2019 9.8 (14:00) -1.7 (-00:0) 4.1 7.5 (15:40) 3.89 (14:50) 1.4 0 0 0.2 1.2
19-11-2019 9.2 (15:30) -1.9 (-00:0) 3.6 7.22 (15:20) 4.17 (16:20) 0 0 0 0 0
18-11-2019 9.4 (15:20) 1.1 (00:00) 5.2 11.67 (11:30) 7.22 (11:30) 0.2 0 0.2 0 0
17-11-2019 6.1 (12:10) -1.7 (-00:0) 2.2 10.83 (13:10) 7.22 (11:00) 9.8 0 0 0 9.8
16-11-2019 8.5 (15:10) -0.1 (00:00) 4.2 8.33 (17:10) 4.72 (15:00) 0 0 0 0 0
15-11-2019 7.1 (13:50) 1.3 (00:00) 4.2 9.72 (11:10) 6.39 (11:10) 0.8 0.8 0 0 0
14-11-2019 8.9 (02:20) 3.3 (00:00) 6.1 16.39 (10:10) 10 (04:20) 4.2 0 2.8 0.6 0.8
13-11-2019 15.1 (16:00) 6.2 (00:00) 10.7 13.33 (08:40) 8.89 (08:30) 6.4 1.6 4.6 0.2 0
12-11-2019 11.2 (14:00) 2 (00:00) 6.6 9.72 (10:50) 6.39 (11:50) 0 0 0 0 0
11-11-2019 9.6 (15:40) 1.3 (04:40) 5.5 9.44 (11:50) 6.67 (11:50) 0 0 0 0 0
10-11-2019 9.5 (14:40) 2.6 (00:00) 6 14.72 (15:10) 9.17 (15:10) 0.2 0.2 0 0 0

Gráficas

Temp. máximas Temp. mínimas Temp. medias Precipitaciones Rachas de viento máximas Velocidades máximas media en intervalos de 10 minutos

Datos horarios

Fecha y hora oficial Temperatura (ºC) Velocidad del viento (km/h) Dirección del viento Racha (km/h) Dirección de racha Precipitación (mm) Presión (hPa) Tendencia (hPa) Humedad (%)
2019-12-09 23:00:00 3.5 6 Norte 12 Norte 0 -- -- 86
2019-12-09 22:00:00 3.9 2 Norte 12 Norte 0 -- -- 89
2019-12-09 21:00:00 5.2 4 Noroeste 15 Norte 0 -- -- 87
2019-12-09 20:00:00 6.5 7 Norte 15 Norte 0 -- -- 84
2019-12-09 19:00:00 7.3 6 Norte 12 Noroeste 0 -- -- 84
2019-12-09 18:00:00 8.8 7 Noroeste 23 Noroeste 0 -- -- 80
2019-12-09 17:00:00 10.7 12 Oeste 25 Oeste 0 -- -- 71
2019-12-09 16:00:00 11.4 14 Noroeste 27 Oeste 0 -- -- 70
2019-12-09 15:00:00 10.4 18 Oeste 28 Oeste 0 -- -- 74
2019-12-09 14:00:00 9.4 14 Oeste 28 Oeste 0 -- -- 82
2019-12-09 13:00:00 6.2 13 Oeste 26 Oeste 0 -- -- 96
2019-12-09 12:00:00 5.3 14 Oeste 24 Oeste 0 -- -- 99
2019-12-09 11:00:00 4.7 13 Oeste 22 Oeste 0 -- -- 99
2019-12-09 10:00:00 4.2 9 Noroeste 19 Oeste 0 -- -- 100
2019-12-09 09:00:00 4.3 7 Noroeste 18 Oeste 0 -- -- 100
2019-12-09 08:00:00 4.7 9 Noroeste 17 Noroeste 0 -- -- 99
2019-12-09 07:00:00 5 8 Noroeste 18 Oeste 0 -- -- 100
2019-12-09 06:00:00 5.4 5 Noroeste 17 Noroeste 0 -- -- 100
2019-12-09 05:00:00 5.5 5 Noroeste 22 Noroeste 0 -- -- 100
2019-12-09 04:00:00 6.1 6 Noroeste 21 Noroeste 0 -- -- 100
2019-12-09 03:00:00 6.7 13 Noroeste 23 Noroeste 0 -- -- 100
2019-12-09 02:00:00 6.8 10 Oeste 21 Oeste 0 -- -- 100
2019-12-09 01:00:00 6.9 13 Oeste 21 Oeste 0 -- -- 98
2019-12-09 00:00:00 7.2 9 Noroeste 27 Noroeste 0 -- -- 98
2019-12-08 23:00:00 7.3 11 Noroeste 19 Noroeste 0 -- -- 98
2019-12-08 22:00:00 7.2 10 Oeste 21 Oeste 0 -- -- 98
2019-12-08 21:00:00 7 5 Oeste 11 Oeste 0.2 -- -- 98
2019-12-08 20:00:00 7.1 7 Oeste 17 Noroeste 0.2 -- -- 97
2019-12-08 19:00:00 7.3 9 Noroeste 17 Noroeste 0 -- -- 96
2019-12-08 18:00:00 7.3 13 Oeste 20 Oeste 0 -- -- 96
2019-12-08 17:00:00 7.7 15 Oeste 22 Noroeste 0 -- -- 95
2019-12-08 16:00:00 8.1 15 Oeste 22 Oeste 0 -- -- 93
2019-12-08 15:00:00 8 14 Noroeste 21 Oeste 0 -- -- 95
2019-12-08 14:00:00 6.7 9 Oeste 13 Oeste 0 -- -- 100
2019-12-08 13:00:00 5.7 8 Oeste 14 Oeste 0 -- -- 100
2019-12-08 12:00:00 4.8 5 Oeste 11 Noroeste 0 -- -- 100
2019-12-08 11:00:00 3.7 7 Oeste 11 Noroeste 0 -- -- 100
2019-12-08 10:00:00 3 7 Oeste 13 Noroeste 0 -- -- 100
2019-12-08 09:00:00 2.9 6 Oeste 12 Oeste 0 -- -- 100
2019-12-08 08:00:00 2 4 Oeste 9 Oeste 0 -- -- 100
2019-12-08 07:00:00 2.3 4 Noroeste 16 Oeste 0 -- -- 100
2019-12-08 06:00:00 2.9 6 Oeste 13 Oeste 0 -- -- 100
2019-12-08 05:00:00 2.8 6 Oeste 12 Oeste 0 -- -- 100
2019-12-08 04:00:00 2.7 5 Oeste 9 Oeste 0 -- -- 100
2019-12-08 03:00:00 2 4 Oeste 6 Oeste 0 -- -- 100
2019-12-08 02:00:00 2.8 2 Oeste 6 Oeste 0 -- -- 100
2019-12-08 01:00:00 3.9 0 Calma 5 Noroeste 0 -- -- 99
2019-12-08 00:00:00 5 3 Oeste 11 Oeste 0 -- -- 99
2019-12-07 23:00:00 5.5 5 Oeste 11 Oeste 0 -- -- 99
2019-12-07 22:00:00 5.7 2 Oeste 14 Oeste 0 -- -- 99
2019-12-07 21:00:00 5.7 7 Oeste 12 Oeste 0 -- -- 98
2019-12-07 20:00:00 6.7 3 Sudoeste 10 Oeste 0 -- -- 95
2019-12-07 19:00:00 7.8 3 Oeste 9 Oeste 0 -- -- 90
2019-12-07 18:00:00 9.8 6 Oeste 12 Oeste 0 -- -- 84
2019-12-07 17:00:00 12.5 7 Oeste 12 Oeste 0 -- -- 75
2019-12-07 16:00:00 13.3 7 Oeste 10 Oeste 0 -- -- 69
2019-12-07 15:00:00 13.7 3 Oeste 8 Noroeste 0 -- -- 67
2019-12-07 14:00:00 12.8 3 Oeste 8 Sur 0 -- -- 70
2019-12-07 13:00:00 12 2 Sudoeste 7 Oeste 0 -- -- 73
2019-12-07 12:00:00 10.4 2 Oeste 5 Noroeste 0 -- -- 75
2019-12-07 11:00:00 8.3 2 Sudeste 9 Este 0 -- -- 83
2019-12-07 10:00:00 5 5 Nordeste 10 Nordeste 0 -- -- 99
2019-12-07 09:00:00 2.9 4 Nordeste 8 Nordeste 0 -- -- 100
2019-12-07 08:00:00 2.8 5 Nordeste 11 Nordeste 0 -- -- 98
2019-12-07 07:00:00 3.9 3 Nordeste 15 Nordeste 0 -- -- 98
2019-12-07 06:00:00 4.2 4 Nordeste 13 Este 0 -- -- 97
2019-12-07 05:00:00 5.1 6 Este 14 Nordeste 0 -- -- 97
2019-12-07 04:00:00 5.6 8 Nordeste 16 Nordeste 0 -- -- 96
2019-12-07 03:00:00 6.3 5 Nordeste 12 Nordeste 0 -- -- 97
2019-12-07 02:00:00 5.8 6 Este 13 Este 0 -- -- 98
2019-12-07 01:00:00 5.6 4 Este 11 Este 0 -- -- 98
2019-12-07 00:00:00 5.3 7 Este 12 Este 0 -- -- 97
2019-12-06 23:00:00 5.1 7 Nordeste 14 Nordeste 0 -- -- 95
2019-12-06 22:00:00 5.3 5 Este 12 Nordeste 0 -- -- 94
2019-12-06 21:00:00 6.4 4 Este 11 Este 0 -- -- 92
2019-12-06 20:00:00 8 4 Este 12 Este 0 -- -- 88
2019-12-06 19:00:00 8.2 5 Este 21 Sudeste 0 -- -- 87
2019-12-06 18:00:00 9.1 6 Sudeste 16 Este 0 -- -- 83
2019-12-06 17:00:00 9.7 6 Este 17 Este 0 -- -- 81
2019-12-06 16:00:00 10.3 11 Este 22 Este 0 -- -- 77
2019-12-06 15:00:00 10.4 8 Sudeste 26 Sudeste 0 -- -- 78
2019-12-06 14:00:00 10.3 11 Sudeste 27 Sudeste 0 -- -- 79
2019-12-06 13:00:00 9.6 11 Sudeste 22 Sudeste 0 -- -- 82
2019-12-06 12:00:00 9.2 9 Este 23 Este 0 -- -- 81
2019-12-06 11:00:00 8.2 8 Este 21 Nordeste 0 -- -- 86
2019-12-06 10:00:00 6 3 Este 11 Este 0 -- -- 94
2019-12-06 09:00:00 4.9 6 Este 14 Este 0 -- -- 95
2019-12-06 08:00:00 5.2 10 Este 18 Este 0 -- -- 94
2019-12-06 07:00:00 5.1 4 Nordeste 14 Nordeste 0 -- -- 95
2019-12-06 06:00:00 5.4 9 Este 14 Este 0 -- -- 95
2019-12-06 05:00:00 5.3 4 Este 10 Este 0 -- -- 97
2019-12-06 04:00:00 4.8 4 Nordeste 9 Este 0 -- -- 98
2019-12-06 03:00:00 4.9 5 Nordeste 10 Este 0 -- -- 97
2019-12-06 02:00:00 6.1 3 Este 9 Este 0 -- -- 96
2019-12-06 01:00:00 6.9 4 Sudeste 14 Este 0 -- -- 94
2019-12-06 00:00:00 7.8 7 Este 17 Sudeste 0 -- -- 93
2019-12-05 23:00:00 7.7 6 Este 16 Este 0 -- -- 93
2019-12-05 22:00:00 7.8 7 Este 16 Este 0 -- -- 92
2019-12-05 21:00:00 7.8 5 Este 16 Este 0 -- -- 91
2019-12-05 20:00:00 8 5 Este 15 Este 0 -- -- 89
2019-12-05 19:00:00 8.2 5 Este 13 Este 0 -- -- 92
2019-12-05 18:00:00 8.6 6 Sudeste 18 Sudeste 0 -- -- 89
2019-12-05 17:00:00 9.2 8 Sudeste 17 Sudeste 0 -- -- 87
2019-12-05 16:00:00 9.4 7 Este 27 Este 0 -- -- 87
2019-12-05 15:00:00 10.5 10 Este 23 Nordeste 0 -- -- 78
2019-12-05 14:00:00 11.6 12 Sudeste 27 Sudeste 0 -- -- 71
2019-12-05 13:00:00 10.9 10 Este 35 Este 0 -- -- 75
2019-12-05 12:00:00 10.9 12 Este 30 Este 0 -- -- 71
2019-12-05 11:00:00 10.2 13 Este 28 Este 0 -- -- 73
2019-12-05 10:00:00 7.7 15 Este 26 Este 0 -- -- 81
2019-12-05 09:00:00 6.6 10 Nordeste 23 Este 0 -- -- 84
2019-12-05 08:00:00 6.2 6 Nordeste 15 Nordeste 0 -- -- 85
2019-12-05 07:00:00 5.9 5 Nordeste 10 Nordeste 0.2 -- -- 89
2019-12-05 06:00:00 5.8 5 Nordeste 14 Nordeste 0 -- -- 87
2019-12-05 05:00:00 5.9 6 Nordeste 13 Nordeste 0.2 -- -- 87
2019-12-05 04:00:00 6.3 5 Nordeste 11 Norte 0 -- -- 86
2019-12-05 03:00:00 6.3 3 Nordeste 11 Nordeste 0 -- -- 88
2019-12-05 02:00:00 6.3 4 Nordeste 10 Nordeste 0 -- -- 88
2019-12-05 01:00:00 5.9 0 Calma 2 Nordeste 0 -- -- 93
2019-12-05 00:00:00 6 0 Calma 7 Nordeste 0 -- -- 92
2019-12-04 23:00:00 6.2 3 Norte 9 Norte 0 -- -- 91
2019-12-04 22:00:00 6.7 2 Norte 5 Norte 0.2 -- -- 91
2019-12-04 21:00:00 6.7 3 Norte 6 Norte 0 -- -- 90
2019-12-04 20:00:00 6.6 3 Nordeste 10 Nordeste 0 -- -- 87
2019-12-04 19:00:00 7.4 4 Nordeste 16 Este 0 -- -- 86
2019-12-04 18:00:00 8.4 9 Este 21 Este 0 -- -- 82
2019-12-04 17:00:00 8.8 4 Norte 12 Norte 0 -- -- 88
2019-12-04 16:00:00 8.9 5 Norte 14 Noroeste 0.2 -- -- 89
2019-12-04 15:00:00 8.5 7 Noroeste 15 Noroeste 0 -- -- 89
2019-12-04 14:00:00 8.3 9 Norte 21 Norte 0 -- -- 88
2019-12-04 13:00:00 7 12 Norte 31 Norte 0 -- -- 92
2019-12-04 12:00:00 6.2 15 Norte 30 Noroeste 0 -- -- 92
2019-12-04 11:00:00 5.6 13 Noroeste 29 Noroeste 0.4 -- -- 95
2019-12-04 10:00:00 5.5 12 Norte 25 Norte 0.6 -- -- 94
2019-12-04 09:00:00 5.5 12 Norte 24 Norte 0.2 -- -- 94
2019-12-04 08:00:00 5.6 15 Norte 26 Norte 0.2 -- -- 91
2019-12-04 07:00:00 5.8 12 Norte 23 Norte 0 -- -- 89
2019-12-04 06:00:00 5.6 12 Norte 26 Norte 0 -- -- 91
2019-12-04 05:00:00 5.7 16 Norte 26 Norte 0 -- -- 91
2019-12-04 04:00:00 5.9 11 Norte 23 Norte 0 -- -- 91
2019-12-04 03:00:00 5.8 8 Nordeste 21 Norte 0 -- -- 93
2019-12-04 02:00:00 5.7 7 Norte 16 Nordeste 0.2 -- -- 90
2019-12-04 01:00:00 5.4 6 Nordeste 18 Nordeste 0 -- -- 90
2019-12-04 00:00:00 5.6 6 Nordeste 17 Nordeste 0.2 -- -- 89
2019-12-03 23:00:00 5.3 5 Nordeste 10 Nordeste 0 -- -- 93
2019-12-03 22:00:00 5.3 5 Este 8 Este 0.2 -- -- 91
2019-12-03 21:00:00 5.4 2 Este 8 Sudeste 0 -- -- 92
2019-12-03 20:00:00 5.8 3 Este 11 Sudeste 0 -- -- 90
2019-12-03 19:00:00 6.1 5 Sudeste 21 Sudeste 0 -- -- 88
2019-12-03 18:00:00 6.5 9 Sudeste 18 Este 0 -- -- 85
2019-12-03 17:00:00 7.1 6 Este 19 Sudeste 0 -- -- 84
2019-12-03 16:00:00 7.2 5 Sudeste 21 Este 0 -- -- 85
2019-12-03 15:00:00 7.3 8 Este 20 Este 0 -- -- 82
2019-12-03 14:00:00 7.7 9 Este 23 Este 0 -- -- 81
2019-12-03 13:00:00 7.9 12 Este 26 Este 0 -- -- 81
2019-12-03 12:00:00 7.2 10 Este 26 Sudeste 0 -- -- 85
2019-12-03 11:00:00 6.4 11 Este 22 Este 0 -- -- 83
2019-12-03 10:00:00 5.7 12 Este 21 Este 0 -- -- 83
2019-12-03 09:00:00 4.7 10 Nordeste 18 Nordeste 0 -- -- 87
2019-12-03 08:00:00 4.9 8 Nordeste 19 Este 0 -- -- 85
2019-12-03 07:00:00 5.5 12 Este 21 Nordeste 0 -- -- 86
2019-12-03 06:00:00 5.2 12 Este 22 Este 0 -- -- 87
2019-12-03 05:00:00 4.7 14 Este 21 Este 0 -- -- 88
2019-12-03 04:00:00 5.1 13 Este 23 Este 0.2 -- -- 87
2019-12-03 03:00:00 5.7 10 Este 18 Este 0.2 -- -- 89
2019-12-03 02:00:00 5.3 6 Nordeste 13 Nordeste 0 -- -- 92
2019-12-03 01:00:00 5.3 9 Este 14 Este 0 -- -- 90
2019-12-03 00:00:00 5.9 6 Este 15 Nordeste 0 -- -- 88
2019-12-02 23:00:00 6.4 6 Este 17 Este 0 -- -- 86
2019-12-02 22:00:00 6.5 9 Este 17 Este 0 -- -- 86
2019-12-02 21:00:00 7.4 7 Este 16 Este 0 -- -- 84
2019-12-02 20:00:00 8.1 11 Este 18 Este 0 -- -- 83
2019-12-02 19:00:00 8 7 Este 15 Nordeste 0 -- -- 85
2019-12-02 18:00:00 8.6 6 Este 20 Nordeste 0 -- -- 78
2019-12-02 17:00:00 9.2 12 Este 27 Este 0 -- -- 76
2019-12-02 16:00:00 9.5 9 Este 36 Este 0 -- -- 76
2019-12-02 15:00:00 9.3 15 Este 36 Nordeste 0 -- -- 75
2019-12-02 14:00:00 9.8 16 Este 37 Este 0.2 -- -- 74
2019-12-02 13:00:00 8.7 14 Este 31 Este 0.2 -- -- 80
2019-12-02 12:00:00 8.1 21 Este 32 Este 0 -- -- 78
2019-12-02 11:00:00 7.1 17 Este 28 Nordeste 0 -- -- 80
2019-12-02 10:00:00 6.4 12 Este 21 Este 0.2 -- -- 86
2019-12-02 09:00:00 5.9 8 Este 17 Este 0.6 -- -- 92
2019-12-02 08:00:00 6 3 Sudeste 9 Este 0.4 -- -- 92
2019-12-02 07:00:00 6.1 4 Este 8 Nordeste 0 -- -- 91
2019-12-02 06:00:00 6.5 7 Este 16 Nordeste 0 -- -- 90
2019-12-02 05:00:00 6.7 10 Este 22 Este 0 -- -- 90
2019-12-02 04:00:00 6.7 12 Este 22 Este 0.2 -- -- 91
2019-12-02 03:00:00 6.7 9 Este 17 Nordeste 0 -- -- 90
2019-12-02 02:00:00 6.8 4 Este 23 Este 0 -- -- 90
2019-12-02 01:00:00 7.2 12 Este 24 Nordeste 0.2 -- -- 87
2019-12-02 00:00:00 7.1 2 Este 9 Este 0.2 -- -- 91
2019-12-01 23:00:00 7.2 2 Oeste 9 Nordeste 0 -- -- 93
2019-12-01 22:00:00 7.3 2 Este 9 Este 0 -- -- 92
2019-12-01 21:00:00 7.3 3 Este 7 Este 0 -- -- 90
2019-12-01 20:00:00 7.5 0 Calma 6 Nordeste 0 -- -- 88
2019-12-01 19:00:00 8 0 Calma 10 Este 0 -- -- 86
2019-12-01 18:00:00 8.6 3 Este 8 Este 0 -- -- 80
2019-12-01 17:00:00 9.5 3 Este 6 Este 0 -- -- 70
2019-12-01 16:00:00 9.3 4 Sudoeste 15 Oeste 0 -- -- 71
2019-12-01 15:00:00 9.7 9 Oeste 16 Oeste 0 -- -- 73
2019-12-01 14:00:00 9.9 9 Oeste 16 Oeste 0 -- -- 70
2019-12-01 13:00:00 9.5 7 Sudoeste 14 Oeste 0 -- -- 78
2019-12-01 12:00:00 8.9 11 Sudoeste 21 Oeste 0 -- -- 83
2019-12-01 11:00:00 6.7 13 Oeste 26 Oeste 0 -- -- 94
2019-12-01 10:00:00 6 8 Sudoeste 18 Oeste 0 -- -- 99
2019-12-01 09:00:00 5.5 9 Oeste 19 Oeste 0 -- -- 99
2019-12-01 08:00:00 5.7 13 Oeste 21 Oeste 0 -- -- 98
2019-12-01 07:00:00 6.5 4 Sudoeste 12 Noroeste 0 -- -- 96
2019-12-01 06:00:00 6.5 4 Noroeste 13 Oeste 0 -- -- 95
2019-12-01 05:00:00 7.3 8 Oeste 16 Noroeste 0.2 -- -- 96
2019-12-01 04:00:00 7.5 9 Noroeste 18 Noroeste 0.4 -- -- 96
2019-12-01 03:00:00 8 6 Norte 30 Oeste 1.2 -- -- 96
2019-12-01 02:00:00 9.3 13 Oeste 31 Oeste 0 -- -- 98
2019-12-01 01:00:00 9.8 15 Oeste 28 Oeste 0.2 -- -- 95
2019-12-01 00:00:00 9.9 8 Sudoeste 18 Sudoeste 0 -- -- 93
2019-11-30 23:00:00 9.3 10 Sudoeste 19 Sudoeste 0 -- -- 92
2019-11-30 22:00:00 8.8 9 Sudoeste 13 Sudoeste 0 -- -- 92
2019-11-30 21:00:00 8.7 6 Sudoeste 10 Sudoeste 0 -- -- 91
2019-11-30 20:00:00 9.2 5 Sudoeste 16 Oeste 0 -- -- 89
2019-11-30 19:00:00 10.1 10 Oeste 21 Oeste 0 -- -- 87
2019-11-30 18:00:00 11.1 12 Oeste 32 Oeste 0 -- -- 83
2019-11-30 17:00:00 12.4 19 Oeste 32 Oeste 0 -- -- 77
2019-11-30 16:00:00 12.7 19 Oeste 37 Oeste 0 -- -- 79
2019-11-30 15:00:00 13 19 Oeste 28 Oeste 0 -- -- 80
2019-11-30 14:00:00 13.7 15 Oeste 27 Oeste 0 -- -- 81
2019-11-30 13:00:00 12.7 14 Oeste 26 Oeste 0 -- -- 86
2019-11-30 12:00:00 11.6 16 Oeste 25 Oeste 0 -- -- 90
2019-11-30 11:00:00 11.3 15 Oeste 21 Oeste 0 -- -- 90
2019-11-30 10:00:00 10.4 7 Oeste 12 Oeste 0 -- -- 92
2019-11-30 09:00:00 9.5 3 Sudoeste 5 Sudoeste 0 -- -- 95
2019-11-30 08:00:00 9.4 2 Sudoeste 8 Sudoeste 0 -- -- 96
2019-11-30 07:00:00 9.4 3 Sudoeste 5 Sudoeste 0 -- -- 96
2019-11-30 06:00:00 9.4 3 Oeste 8 Sudoeste 0 -- -- 96
2019-11-30 05:00:00 9.4 4 Sudoeste 7 Oeste 0 -- -- 96
2019-11-30 04:00:00 9.5 3 Sudoeste 6 Oeste 0 -- -- 95
2019-11-30 03:00:00 9.5 4 Sudoeste 8 Oeste 0 -- -- 95
2019-11-30 02:00:00 9.6 5 Oeste 13 Oeste 0 -- -- 95
2019-11-30 01:00:00 9.2 8 Oeste 10 Oeste 0 -- -- 97
2019-11-30 00:00:00 9.1 5 Oeste 8 Oeste 0 -- -- 97
2019-11-29 23:00:00 9.6 3 Sur 13 Oeste 0 -- -- 96
2019-11-29 22:00:00 10.2 10 Oeste 22 Oeste 0 -- -- 95
2019-11-29 21:00:00 10.5 15 Oeste 24 Oeste 0 -- -- 96
2019-11-29 20:00:00 10.9 13 Oeste 19 Oeste 0 -- -- 95
2019-11-29 19:00:00 10.9 8 Oeste 19 Oeste 0 -- -- 96
2019-11-29 18:00:00 11.1 13 Oeste 19 Oeste 0 -- -- 96
2019-11-29 17:00:00 11.3 13 Oeste 21 Oeste 0 -- -- 95
2019-11-29 16:00:00 11.2 15 Oeste 30 Oeste 0 -- -- 96
2019-11-29 15:00:00 11.1 18 Oeste 29 Oeste 0 -- -- 96
2019-11-29 14:00:00 11.3 19 Oeste 27 Oeste 0 -- -- 95
2019-11-29 13:00:00 11 15 Oeste 25 Oeste 0 -- -- 96
2019-11-29 12:00:00 10.6 15 Oeste 29 Oeste 0 -- -- 98
2019-11-29 11:00:00 9.9 18 Oeste 31 Oeste 0 -- -- 98
2019-11-29 10:00:00 9.5 24 Oeste 36 Oeste 0 -- -- 98
2019-11-29 09:00:00 9.2 24 Oeste 32 Oeste 0 -- -- 96
2019-11-29 08:00:00 9 20 Oeste 32 Oeste 0 -- -- 95
2019-11-29 07:00:00 9 20 Oeste 33 Oeste 0 -- -- 94
2019-11-29 06:00:00 8.9 22 Oeste 39 Oeste 0 -- -- 92
2019-11-29 05:00:00 8.6 21 Oeste 33 Oeste 0 -- -- 92
2019-11-29 04:00:00 8.3 18 Oeste 29 Oeste 0 -- -- 92
2019-11-29 03:00:00 8.1 10 Oeste 24 Oeste 0 -- -- 92
2019-11-29 02:00:00 7.6 12 Oeste 19 Oeste 0 -- -- 94
2019-11-29 01:00:00 7 3 Sudoeste 19 Oeste 0 -- -- 94
2019-11-29 00:00:00 7.6 13 Oeste 22 Oeste 0 -- -- 93
2019-11-28 23:00:00 8 11 Oeste 21 Oeste 0 -- -- 93
2019-11-28 22:00:00 8.2 12 Oeste 28 Oeste 0 -- -- 93
2019-11-28 21:00:00 8.7 18 Oeste 28 Oeste 0 -- -- 94
2019-11-28 20:00:00 8.3 13 Oeste 24 Oeste 0 -- -- 98
2019-11-28 19:00:00 8.2 14 Oeste 27 Oeste 0 -- -- 98
2019-11-28 18:00:00 8.3 18 Oeste 33 Oeste 0 -- -- 96
2019-11-28 17:00:00 9.1 19 Oeste 32 Oeste 0 -- -- 91
2019-11-28 16:00:00 9.3 20 Oeste 30 Oeste 0 -- -- 91
2019-11-28 15:00:00 8.7 16 Oeste 26 Oeste 0 -- -- 94
2019-11-28 14:00:00 8.7 14 Oeste 27 Oeste 0 -- -- 92
2019-11-28 13:00:00 8.6 18 Oeste 29 Oeste 0 -- -- 91
2019-11-28 12:00:00 8.3 15 Oeste 25 Oeste 0 -- -- 95
2019-11-28 11:00:00 6.8 12 Oeste 18 Oeste 0 -- -- 100
2019-11-28 10:00:00 6.2 12 Oeste 18 Oeste 0 -- -- 100
2019-11-28 09:00:00 6 10 Oeste 18 Oeste 0 -- -- 100
2019-11-28 08:00:00 6 8 Oeste 22 Oeste 0 -- -- 99
2019-11-28 07:00:00 5.8 13 Oeste 24 Noroeste 0 -- -- 99
2019-11-28 06:00:00 6 16 Oeste 25 Oeste 0 -- -- 98
2019-11-28 05:00:00 6 18 Oeste 29 Oeste 0 -- -- 97
2019-11-28 04:00:00 6.2 20 Oeste 32 Oeste 0 -- -- 96
2019-11-28 03:00:00 6.5 20 Oeste 29 Oeste 0 -- -- 96
2019-11-28 02:00:00 5.9 14 Oeste 26 Oeste 0 -- -- 97
2019-11-28 01:00:00 6.3 17 Oeste 27 Oeste 0 -- -- 94
2019-11-28 00:00:00 6.8 18 Oeste 29 Oeste 0 -- -- 92
2019-11-27 23:00:00 6.9 14 Oeste 22 Oeste 0 -- -- 93
2019-11-27 22:00:00 8.1 17 Oeste 28 Oeste 0 -- -- 89
2019-11-27 21:00:00 8.6 18 Oeste 27 Oeste 0 -- -- 87
2019-11-27 20:00:00 8.7 14 Oeste 23 Oeste 0 -- -- 85
2019-11-27 19:00:00 9.9 17 Oeste 27 Noroeste 0 -- -- 75
2019-11-27 18:00:00 10.4 15 Oeste 30 Oeste 0 -- -- 79
2019-11-27 17:00:00 11 21 Oeste 33 Oeste 0 -- -- 76
2019-11-27 16:00:00 11.1 20 Oeste 33 Oeste 0 -- -- 73
2019-11-27 15:00:00 11.6 21 Oeste 34 Oeste 0 -- -- 73
2019-11-27 14:00:00 11.1 19 Oeste 30 Oeste 0 -- -- 71
2019-11-27 06:00:00 -- -- -- -- -- -- -- -- --
2019-11-27 05:00:00 -- -- -- -- -- -- -- -- --
2019-11-27 04:00:00 -- -- -- -- -- -- -- -- --
2019-11-27 03:00:00 10.5 26 Oeste 47 Oeste 0 -- -- 96
2019-11-27 02:00:00 11.1 28 Oeste 46 Oeste 0 -- -- 97
2019-11-27 01:00:00 10.9 21 Oeste 41 Oeste 0.2 -- -- 97
2019-11-27 00:00:00 11.2 27 Oeste 44 Oeste 0 -- -- 95
2019-11-26 23:00:00 11.3 16 Oeste 29 Oeste 0 -- -- 95
2019-11-26 22:00:00 11.4 18 Oeste 28 Oeste 0 -- -- 94
2019-11-26 21:00:00 11.3 14 Sudoeste 30 Sudoeste 0.8 -- -- 97
2019-11-26 20:00:00 11.9 15 Sudoeste 24 Sudoeste 0 -- -- 94
2019-11-26 19:00:00 11.9 13 Oeste 27 Oeste 0.2 -- -- 98
2019-11-26 18:00:00 12 20 Oeste 29 Oeste 0 -- -- 98
2019-11-26 17:00:00 12.3 15 Oeste 29 Oeste 0 -- -- 95
2019-11-26 16:00:00 12.9 20 Oeste 39 Oeste 0 -- -- 90
2019-11-26 15:00:00 12 19 Oeste 31 Oeste 0 -- -- 96
2019-11-26 14:00:00 11.6 21 Oeste 33 Oeste 0 -- -- 96
2019-11-26 13:00:00 11.3 16 Oeste 27 Oeste 0 -- -- 93
2019-11-26 12:00:00 10.7 15 Oeste 24 Oeste 0 -- -- 94
2019-11-26 11:00:00 10.5 17 Oeste 26 Oeste 0 -- -- 94
2019-11-26 10:00:00 10 13 Oeste 20 Sudoeste 0 -- -- 96
2019-11-26 09:00:00 9.3 9 Oeste 15 Oeste 0 -- -- 95
2019-11-26 08:00:00 9.3 8 Oeste 12 Oeste 0 -- -- 95
2019-11-26 07:00:00 9.4 6 Oeste 18 Oeste 0 -- -- 96
2019-11-26 06:00:00 9.4 11 Noroeste 19 Oeste 0 -- -- 97
2019-11-26 05:00:00 9.5 12 Oeste 21 Noroeste 0 -- -- 98
2019-11-26 04:00:00 9.7 12 Oeste 20 Oeste 0 -- -- 98
2019-11-26 03:00:00 9.7 10 Oeste 21 Oeste 0 -- -- 98
2019-11-26 02:00:00 9.9 13 Oeste 21 Oeste 0 -- -- 98
2019-11-26 01:00:00 9.9 11 Oeste 19 Oeste 0 -- -- 98
2019-11-26 00:00:00 9.8 8 Oeste 12 Oeste 0 -- -- 98
2019-11-25 23:00:00 9.7 3 Oeste 6 Oeste 0 -- -- 97
2019-11-25 22:00:00 9.6 4 Oeste 6 Oeste 0 -- -- 97
2019-11-25 21:00:00 9.5 0 Calma 12 Oeste 0 -- -- 96
2019-11-25 20:00:00 10 6 Oeste 12 Oeste 0 -- -- 95
2019-11-25 19:00:00 10.4 6 Noroeste 10 Oeste 0 -- -- 97
2019-11-25 18:00:00 11.1 6 Oeste 13 Noroeste 0 -- -- 96
2019-11-25 17:00:00 11.9 6 Oeste 29 Oeste 0 -- -- 96
2019-11-25 16:00:00 11.3 16 Oeste 34 Oeste 0.4 -- -- 99
2019-11-25 15:00:00 10.9 16 Oeste 29 Oeste 0.4 -- -- 99
2019-11-25 14:00:00 10.7 14 Oeste 32 Oeste 0 -- -- 99
2019-11-25 13:00:00 10.2 18 Oeste 31 Oeste 0 -- -- 100
2019-11-25 12:00:00 9.4 21 Oeste 36 Oeste 0 -- -- 100
2019-11-25 11:00:00 8.7 25 Oeste 35 Oeste 0 -- -- 100
2019-11-25 10:00:00 8.3 22 Oeste 36 Oeste 0 -- -- 100
2019-11-25 09:00:00 7.9 22 Oeste 34 Oeste 0 -- -- 99
2019-11-25 08:00:00 7.5 24 Oeste 40 Oeste 0 -- -- 99
2019-11-25 07:00:00 7.2 25 Oeste 39 Oeste 0.2 -- -- 99
2019-11-25 06:00:00 7 25 Oeste 36 Oeste 0 -- -- 98
2019-11-25 05:00:00 7 26 Oeste 39 Oeste 0.2 -- -- 98
2019-11-25 04:00:00 7.3 24 Oeste 39 Oeste 0 -- -- 94
2019-11-25 03:00:00 7 23 Oeste 34 Oeste 0 -- -- 93
2019-11-25 02:00:00 6.2 12 Oeste 21 Oeste 0 -- -- 95
2019-11-25 01:00:00 5.9 15 Oeste 25 Oeste 0 -- -- 96
2019-11-25 00:00:00 5.1 12 Oeste 28 Oeste 0 -- -- 95
2019-11-24 23:00:00 4.1 18 Oeste 26 Oeste 0 -- -- 96
2019-11-24 22:00:00 4.3 5 Sudoeste 14 Oeste 0 -- -- 93
2019-11-24 21:00:00 4.8 10 Oeste 18 Oeste 0 -- -- 91
2019-11-24 20:00:00 4.8 9 Oeste 15 Oeste 0 -- -- 90
2019-11-24 19:00:00 5.1 9 Oeste 15 Oeste 0 -- -- 90
2019-11-24 18:00:00 6.9 11 Oeste 26 Oeste 0 -- -- 83
2019-11-24 17:00:00 8.1 15 Oeste 26 Oeste 0 -- -- 74
2019-11-24 16:00:00 8.8 18 Oeste 29 Oeste 0 -- -- 67
2019-11-24 15:00:00 9.5 15 Oeste 30 Oeste 0 -- -- 63
2019-11-24 14:00:00 8.8 17 Noroeste 29 Oeste 0 -- -- 72
2019-11-24 13:00:00 7.9 14 Noroeste 26 Oeste 0 -- -- 77
2019-11-24 12:00:00 7.1 15 Oeste 23 Oeste 0 -- -- 80
2019-11-24 11:00:00 4.7 17 Oeste 27 Oeste 0 -- -- 88
2019-11-24 10:00:00 3.3 17 Oeste 24 Oeste 0 -- -- 93
2019-11-24 09:00:00 1.4 8 Oeste 14 Oeste 0 -- -- 98
2019-11-24 08:00:00 1.7 12 Noroeste 18 Noroeste 0 -- -- 94
2019-11-24 07:00:00 0.9 6 Oeste 17 Oeste 0 -- -- 96
2019-11-24 06:00:00 1.4 5 Oeste 13 Oeste 0 -- -- 94
2019-11-24 05:00:00 2.2 8 Oeste 15 Noroeste 0 -- -- 93
2019-11-24 04:00:00 2.1 8 Oeste 18 Noroeste 0 -- -- 91
2019-11-24 03:00:00 3.1 10 Oeste 22 Oeste 0 -- -- 88
2019-11-24 02:00:00 3.7 14 Noroeste 33 Oeste 0 -- -- 86
2019-11-24 01:00:00 4.1 26 Oeste 41 Oeste 0 -- -- 84
2019-11-24 00:00:00 3.7 13 Oeste 27 Oeste 0 -- -- 86
2019-11-23 23:00:00 4.1 19 Oeste 28 Oeste 0 -- -- 86
2019-11-23 22:00:00 4.7 12 Oeste 26 Noroeste 0 -- -- 82
2019-11-23 21:00:00 5.9 18 Noroeste 31 Oeste 0 -- -- 72
2019-11-23 20:00:00 5.9 14 Oeste 37 Oeste 0 -- -- 77
2019-11-23 19:00:00 7 20 Oeste 34 Oeste 0 -- -- 73
2019-11-23 18:00:00 7.6 20 Oeste 34 Oeste 0 -- -- 71
2019-11-23 17:00:00 9.5 26 Noroeste 45 Oeste 0 -- -- 63
2019-11-23 16:00:00 9.4 27 Noroeste 47 Oeste 0 -- -- 63
2019-11-23 15:00:00 9.5 32 Noroeste 49 Noroeste 0 -- -- 60
2019-11-23 14:00:00 9.9 34 Noroeste 53 Noroeste 0 -- -- 66
2019-11-23 13:00:00 9.2 28 Noroeste 45 Noroeste 0 -- -- 69
2019-11-23 12:00:00 8 27 Noroeste 46 Oeste 0 -- -- 78
2019-11-23 11:00:00 6.3 29 Oeste 49 Oeste 0 -- -- 81
2019-11-23 10:00:00 6.5 30 Oeste 42 Oeste 0 -- -- 82
2019-11-23 09:00:00 5.5 26 Oeste 45 Oeste 0 -- -- 85
2019-11-23 08:00:00 5.6 24 Oeste 40 Oeste 0.2 -- -- 89
2019-11-23 07:00:00 5.7 26 Oeste 42 Oeste 0 -- -- 87
2019-11-23 06:00:00 5.7 22 Oeste 41 Oeste 0 -- -- 89
2019-11-23 05:00:00 5.3 15 Oeste 34 Noroeste 1.8 -- -- 97
2019-11-23 04:00:00 6.3 20 Noroeste 52 Oeste 0.6 -- -- 90
2019-11-23 03:00:00 6.7 28 Oeste 46 Oeste 2 -- -- 96
2019-11-23 02:00:00 7.3 30 Oeste 48 Oeste 0.4 -- -- 94
2019-11-23 01:00:00 7.8 25 Oeste 42 Oeste 0 -- -- 95
2019-11-23 00:00:00 8.5 28 Oeste 42 Sudoeste 0 -- -- 95
2019-11-22 23:00:00 8.8 26 Oeste 39 Sudoeste 0 -- -- 93
2019-11-22 22:00:00 8.9 19 Oeste 32 Oeste 0 -- -- 96
2019-11-22 21:00:00 9.5 22 Oeste 35 Oeste 0 -- -- 94
2019-11-22 20:00:00 10.6 18 Sudoeste 38 Sudoeste 0 -- -- 97
2019-11-22 19:00:00 10.6 15 Sudoeste 44 Sudoeste 0.4 -- -- 96
2019-11-22 18:00:00 10.7 16 Sudoeste 34 Sudoeste 0.6 -- -- 95
2019-11-22 17:00:00 10.9 22 Sudoeste 52 Sudoeste 2.6 -- -- 96
2019-11-22 16:00:00 10.9 19 Sudoeste 32 Sudoeste 2.2 -- -- 95
2019-11-22 15:00:00 10 8 Sur 25 Sudoeste 4.8 -- -- 97
2019-11-22 14:00:00 10 10 Sudoeste 22 Sudoeste 3.8 -- -- 96
2019-11-22 13:00:00 10.3 13 Sudoeste 25 Sur 0.8 -- -- 93
2019-11-22 12:00:00 10.1 14 Sudoeste 24 Sudoeste 0 -- -- 90
2019-11-22 11:00:00 9.4 10 Sur 18 Sur 0 -- -- 95
2019-11-22 10:00:00 8.7 8 Sur 16 Sur 0 -- -- 97
2019-11-22 09:00:00 7.4 5 Sur 9 Sudoeste 0 -- -- 99
2019-11-22 08:00:00 7 4 Sur 9 Sur 0 -- -- 99
2019-11-22 07:00:00 6.8 4 Sur 10 Sur 0.2 -- -- 99
2019-11-22 06:00:00 6.8 3 Sur 6 Sur 0.2 -- -- 99
2019-11-22 05:00:00 6.7 3 Sur 10 Sur 0 -- -- 99
2019-11-22 04:00:00 6.7 4 Sur 9 Sur 0 -- -- 99
2019-11-22 03:00:00 6.8 2 Sur 9 Sudoeste 0 -- -- 99
2019-11-22 02:00:00 7.3 5 Sudoeste 10 Oeste 0 -- -- 98
2019-11-22 01:00:00 7.3 5 Oeste 13 Oeste 0 -- -- 98
2019-11-22 00:00:00 7.5 7 Oeste 14 Oeste 0 -- -- 99
2019-11-21 23:00:00 7.6 6 Oeste 12 Oeste 0 -- -- 99
2019-11-21 22:00:00 7.6 4 Sudoeste 10 Oeste 0 -- -- 98
2019-11-21 21:00:00 7.4 7 Oeste 15 Oeste 0 -- -- 98
2019-11-21 20:00:00 7.7 9 Oeste 22 Oeste 0 -- -- 98
2019-11-21 19:00:00 8 12 Oeste 28 Oeste 0.2 -- -- 97
2019-11-21 18:00:00 8.3 16 Oeste 26 Sudoeste 1.6 -- -- 96
2019-11-21 17:00:00 8.5 12 Sudoeste 18 Sudoeste 0.4 -- -- 95
2019-11-21 16:00:00 8.5 6 Sudoeste 13 Sudoeste 0.4 -- -- 93
2019-11-21 15:00:00 8.7 6 Oeste 15 Oeste 0.2 -- -- 91
2019-11-21 14:00:00 8.5 9 Oeste 22 Oeste 0 -- -- 90
2019-11-21 13:00:00 8.5 15 Oeste 24 Sudoeste 0 -- -- 89
2019-11-21 12:00:00 8.4 14 Oeste 25 Oeste 0 -- -- 90
2019-11-21 11:00:00 7 11 Oeste 20 Sudoeste 0 -- -- 99
2019-11-21 10:00:00 6 6 Sudoeste 12 Sudoeste 0.2 -- -- 99
2019-11-21 09:00:00 5.5 6 Oeste 9 Oeste 0 -- -- 99
2019-11-21 08:00:00 4.9 5 Oeste 10 Oeste 0 -- -- 99
2019-11-21 07:00:00 5.3 7 Oeste 20 Oeste 0 -- -- 99
2019-11-21 06:00:00 5.6 14 Oeste 24 Oeste 0 -- -- 99
2019-11-21 05:00:00 5.5 10 Oeste 17 Oeste 0.2 -- -- 99
2019-11-21 04:00:00 5.4 10 Oeste 17 Oeste 0 -- -- 98
2019-11-21 03:00:00 5.3 12 Oeste 27 Oeste 0 -- -- 98
2019-11-21 02:00:00 5.5 14 Oeste 23 Oeste 0 -- -- 98
2019-11-21 01:00:00 5.1 8 Oeste 14 Oeste 0 -- -- 98
2019-11-21 00:00:00 4.9 6 Sudoeste 12 Sudoeste 0 -- -- 97
2019-11-20 23:00:00 4.5 3 Sudoeste 8 Sudoeste 0 -- -- 97
2019-11-20 22:00:00 4.4 4 Sudoeste 8 Sudoeste 0.2 -- -- 96
2019-11-20 21:00:00 4.4 5 Sudoeste 12 Sudoeste 0 -- -- 95
2019-11-20 20:00:00 4.4 8 Sudoeste 18 Sudoeste 0.2 -- -- 93
2019-11-20 19:00:00 4.9 10 Sudoeste 18 Oeste 0.8 -- -- 93
2019-11-20 18:00:00 5.5 11 Sudoeste 18 Sudoeste 0.2 -- -- 90
2019-11-20 17:00:00 6.4 9 Oeste 24 Oeste 0 -- -- 80
2019-11-20 16:00:00 8.2 13 Oeste 27 Oeste 0 -- -- 62
2019-11-20 15:00:00 8.8 13 Sudoeste 23 Oeste 0 -- -- 60
2019-11-20 14:00:00 9.8 9 Sudoeste 19 Sudoeste 0 -- -- 64
2019-11-20 13:00:00 8.6 7 Sudoeste 14 Sudoeste 0 -- -- 67
2019-11-20 12:00:00 8.3 4 Sur 9 Sur 0 -- -- 71
2019-11-20 11:00:00 5.9 3 Sudeste 5 Sur 0 -- -- 79
2019-11-20 10:00:00 2.6 0 Calma 6 Este 0 -- -- 94
2019-11-20 09:00:00 -0.9 2 Nordeste 4 Nordeste 0 -- -- 98
2019-11-20 08:00:00 -1.4 0 Calma 3 Norte 0 -- -- 97
2019-11-20 07:00:00 -0.9 0 Calma 4 Norte 0 -- -- 96
2019-11-20 06:00:00 -0.9 0 Calma 4 Nordeste 0 -- -- 95
2019-11-20 05:00:00 -0.4 0 Calma 2 Este 0 -- -- 96
2019-11-20 04:00:00 0.2 0 Calma 3 Nordeste 0 -- -- 95
2019-11-20 03:00:00 0.3 0 Calma 2 Este 0 -- -- 97
2019-11-20 02:00:00 -0.2 0 Calma 2 Norte 0 -- -- 94
2019-11-20 01:00:00 0.4 0 Calma 3 Norte 0 -- -- 92
2019-11-20 00:00:00 1.2 0 Calma 3 Este 0 -- -- 91
2019-11-19 23:00:00 1.7 0 Calma 0 Calma 0 -- -- 89
2019-11-19 22:00:00 3 0 Calma 3 Oeste 0 -- -- 84
2019-11-19 21:00:00 4.2 3 Oeste 8 Oeste 0 -- -- 78
2019-11-19 20:00:00 4.6 6 Oeste 8 Oeste 0 -- -- 79
2019-11-19 19:00:00 4.8 5 Oeste 9 Oeste 0 -- -- 81
2019-11-19 18:00:00 5.8 5 Oeste 15 Noroeste 0 -- -- 78
2019-11-19 17:00:00 7.5 9 Oeste 23 Noroeste 0 -- -- 69
2019-11-19 16:00:00 8.7 12 Noroeste 26 Oeste 0 -- -- 65
2019-11-19 15:00:00 9 12 Oeste 22 Oeste 0 -- -- 62
2019-11-19 14:00:00 8.5 12 Oeste 20 Oeste 0 -- -- 64
2019-11-19 13:00:00 7.6 11 Oeste 19 Oeste 0 -- -- 68
2019-11-19 12:00:00 6.8 11 Oeste 18 Oeste 0 -- -- 70
2019-11-19 11:00:00 5.3 10 Oeste 15 Oeste 0 -- -- 75
2019-11-19 10:00:00 2.6 6 Oeste 13 Noroeste 0 -- -- 84
2019-11-19 09:00:00 -0.9 2 Noroeste 5 Norte 0 -- -- 94
2019-11-19 08:00:00 -1.5 3 Oeste 8 Oeste 0 -- -- 93
2019-11-19 07:00:00 -1.3 0 Calma 7 Norte 0 -- -- 90
2019-11-19 06:00:00 -1.1 2 Noroeste 7 Norte 0 -- -- 93
2019-11-19 05:00:00 -1.2 0 Calma 6 Sudoeste 0 -- -- 91
2019-11-19 04:00:00 -0.9 2 Noroeste 6 Oeste 0 -- -- 91
2019-11-19 03:00:00 0.1 4 Oeste 11 Nordeste 0 -- -- 88
2019-11-19 02:00:00 0.7 2 Nordeste 11 Norte 0 -- -- 86
2019-11-19 01:00:00 0.8 5 Norte 11 Oeste 0 -- -- 86
2019-11-19 00:00:00 1.2 3 Norte 8 Noroeste 0 -- -- 84
2019-11-18 23:00:00 2.3 6 Noroeste 13 Noroeste 0 -- -- 80
2019-11-18 22:00:00 3 11 Norte 20 Norte 0 -- -- 76
2019-11-18 21:00:00 3 6 Noroeste 17 Noroeste 0 -- -- 77
2019-11-18 20:00:00 3.5 7 Noroeste 14 Noroeste 0 -- -- 76
2019-11-18 19:00:00 4.5 5 Noroeste 18 Norte 0 -- -- 73
2019-11-18 18:00:00 6 8 Norte 21 Norte 0 -- -- 69
2019-11-18 17:00:00 7.8 12 Norte 28 Norte 0 -- -- 60
2019-11-18 16:00:00 9 16 Norte 31 Norte 0 -- -- 57
2019-11-18 15:00:00 8.8 18 Norte 31 Norte 0 -- -- 58
2019-11-18 14:00:00 8.1 18 Norte 34 Norte 0 -- -- 62
2019-11-18 13:00:00 7.6 21 Norte 38 Norte 0 -- -- 67
2019-11-18 12:00:00 7.1 17 Norte 42 Norte 0.2 -- -- 74
2019-11-18 11:00:00 6.1 15 Norte 34 Norte 0 -- -- 77
2019-11-18 10:00:00 4.3 17 Norte 31 Norte 0 -- -- 84
2019-11-18 09:00:00 2.5 17 Norte 32 Noroeste 0 -- -- 89
2019-11-18 08:00:00 2.1 11 Norte 35 Norte 0 -- -- 89
2019-11-18 07:00:00 2.6 16 Norte 33 Norte 0 -- -- 86
2019-11-18 06:00:00 2.6 17 Norte 29 Norte 0 -- -- 87
2019-11-18 05:00:00 2.8 12 Norte 24 Norte 0 -- -- 89
2019-11-18 04:00:00 3 9 Norte 17 Norte 0 -- -- 96
2019-11-18 03:00:00 3.7 6 Norte 19 Norte 0 -- -- 95
2019-11-18 02:00:00 4.3 10 Noroeste 19 Noroeste 0 -- -- 95
2019-11-18 01:00:00 4.6 12 Oeste 18 Oeste 0 -- -- 95
2019-11-18 00:00:00 5 5 Oeste 10 Noroeste 0.2 -- -- 97
2019-11-17 23:00:00 5.2 6 Noroeste 30 Norte 2.6 -- -- 97
2019-11-17 22:00:00 6 15 Oeste 28 Oeste 3.2 -- -- 100
2019-11-17 21:00:00 5.9 16 Sudoeste 28 Oeste 2.8 -- -- 99
2019-11-17 20:00:00 6 16 Oeste 32 Oeste 1 -- -- 99
2019-11-17 19:00:00 5.8 22 Oeste 31 Oeste 0 -- -- 99
2019-11-17 18:00:00 5.2 20 Oeste 35 Oeste 0 -- -- 98
2019-11-17 17:00:00 5.1 23 Oeste 37 Oeste 0 -- -- 98
2019-11-17 16:00:00 4.7 25 Oeste 37 Oeste 0 -- -- 98
2019-11-17 15:00:00 4.2 23 Oeste 37 Oeste 0 -- -- 98
2019-11-17 14:00:00 4.1 23 Oeste 39 Oeste 0 -- -- 97
2019-11-17 13:00:00 4.9 25 Oeste 36 Oeste 0 -- -- 89
2019-11-17 12:00:00 5.6 26 Oeste 35 Oeste 0 -- -- 81
2019-11-17 11:00:00 3.1 26 Oeste 35 Oeste 0 -- -- 88
2019-11-17 10:00:00 1.3 17 Oeste 26 Oeste 0 -- -- 90
2019-11-17 09:00:00 -0.5 13 Oeste 20 Oeste 0 -- -- 93
2019-11-17 08:00:00 -1.4 7 Sudoeste 15 Oeste 0 -- -- 92
2019-11-17 07:00:00 -1.3 9 Oeste 17 Oeste 0 -- -- 92
2019-11-17 06:00:00 -1.5 6 Oeste 15 Oeste 0 -- -- 92
2019-11-17 05:00:00 -1.4 9 Oeste 14 Oeste 0 -- -- 92
2019-11-17 04:00:00 -1.7 7 Oeste 13 Oeste 0 -- -- 93
2019-11-17 03:00:00 -1.2 7 Oeste 12 Oeste 0 -- -- 92
2019-11-17 02:00:00 0 5 Oeste 10 Noroeste 0 -- -- 86
2019-11-17 01:00:00 0.4 9 Oeste 16 Oeste 0 -- -- 85
2019-11-17 00:00:00 0.9 6 Oeste 16 Oeste 0 -- -- 82
2019-11-16 23:00:00 1.3 8 Oeste 11 Noroeste 0 -- -- 80
2019-11-16 22:00:00 2.2 11 Oeste 19 Noroeste 0 -- -- 76
2019-11-16 21:00:00 2.8 12 Noroeste 16 Oeste 0 -- -- 73
2019-11-16 20:00:00 4 8 Noroeste 15 Noroeste 0 -- -- 69
2019-11-16 19:00:00 3.5 8 Noroeste 17 Oeste 0 -- -- 77
2019-11-16 18:00:00 5.7 11 Noroeste 30 Oeste 0 -- -- 67
2019-11-16 17:00:00 8.2 16 Noroeste 27 Noroeste 0 -- -- 58
2019-11-16 16:00:00 8.5 14 Noroeste 27 Oeste 0 -- -- 56
2019-11-16 15:00:00 8.2 17 Noroeste 28 Noroeste 0 -- -- 57
2019-11-16 14:00:00 7.8 14 Norte 29 Norte 0 -- -- 57
2019-11-16 13:00:00 7.7 11 Noroeste 26 Norte 0 -- -- 62
2019-11-16 12:00:00 6.5 13 Norte 28 Norte 0 -- -- 66
2019-11-16 11:00:00 5 12 Norte 22 Norte 0 -- -- 70
2019-11-16 10:00:00 3.1 8 Noroeste 17 Norte 0 -- -- 80
2019-11-16 09:00:00 0.1 2 Oeste 8 Noroeste 0 -- -- 92
2019-11-16 08:00:00 0 5 Noroeste 13 Noroeste 0 -- -- 90
2019-11-16 07:00:00 0.5 5 Norte 17 Noroeste 0 -- -- 88
2019-11-16 06:00:00 0.6 7 Noroeste 15 Noroeste 0 -- -- 88
2019-11-16 05:00:00 0.9 7 Noroeste 14 Noroeste 0 -- -- 87
2019-11-16 04:00:00 1.3 8 Noroeste 18 Oeste 0 -- -- 85
2019-11-16 03:00:00 1.4 11 Noroeste 19 Oeste 0 -- -- 86
2019-11-16 02:00:00 2.7 12 Noroeste 18 Oeste 0 -- -- 82
2019-11-16 01:00:00 2.9 9 Oeste 18 Oeste 0 -- -- 81
2019-11-16 00:00:00 3.7 7 Oeste 18 Noroeste 0 -- -- 80
2019-11-15 23:00:00 3.6 6 Noroeste 19 Noroeste 0 -- -- 76
2019-11-15 22:00:00 3.7 10 Noroeste 22 Noroeste 0 -- -- 74
2019-11-15 21:00:00 3.3 5 Noroeste 13 Noroeste 0 -- -- 77
2019-11-15 20:00:00 4.7 8 Noroeste 16 Noroeste 0 -- -- 74
2019-11-15 19:00:00 5.2 12 Noroeste 18 Oeste 0 -- -- 73
2019-11-15 18:00:00 5.4 13 Oeste 26 Oeste 0 -- -- 74
2019-11-15 17:00:00 6.3 18 Oeste 31 Oeste 0 -- -- 68
2019-11-15 16:00:00 6.4 19 Noroeste 33 Oeste 0 -- -- 69
2019-11-15 15:00:00 6.8 20 Oeste 33 Oeste 0 -- -- 71
2019-11-15 14:00:00 6.9 20 Oeste 30 Oeste 0 -- -- 67
2019-11-15 13:00:00 6.2 17 Oeste 29 Oeste 0 -- -- 73
2019-11-15 12:00:00 6 19 Oeste 35 Oeste 0 -- -- 76
2019-11-15 11:00:00 4.7 21 Noroeste 28 Noroeste 0 -- -- 80
2019-11-15 10:00:00 2.7 15 Oeste 23 Oeste 0 -- -- 92
2019-11-15 09:00:00 1.5 13 Oeste 22 Oeste 0 -- -- 98
2019-11-15 08:00:00 1.5 5 Sudoeste 18 Oeste 0 -- -- 94
2019-11-15 07:00:00 2.1 12 Noroeste 20 Noroeste 0 -- -- 92
2019-11-15 06:00:00 3 14 Oeste 24 Oeste 0 -- -- 91
2019-11-15 05:00:00 3.1 12 Oeste 30 Oeste 0 -- -- 94
2019-11-15 04:00:00 3.4 16 Oeste 28 Oeste 0 -- -- 91
2019-11-15 03:00:00 3.6 15 Oeste 27 Oeste 0.2 -- -- 92
2019-11-15 02:00:00 3.8 13 Oeste 24 Oeste 0.6 -- -- 90
2019-11-15 01:00:00 4.4 14 Oeste 27 Oeste 0 -- -- 89
2019-11-15 00:00:00 4.2 13 Oeste 38 Oeste 0.4 -- -- 92
2019-11-14 23:00:00 4.6 22 Oeste 51 Oeste 0.2 -- -- 88
2019-11-14 22:00:00 4.4 22 Oeste 36 Sudoeste 0.2 -- -- 88
2019-11-14 21:00:00 4.9 27 Oeste 40 Oeste 0 -- -- 83
2019-11-14 20:00:00 5.3 24 Oeste 41 Oeste 0 -- -- 79
2019-11-14 19:00:00 5.9 23 Oeste 37 Oeste 0 -- -- 76
2019-11-14 18:00:00 6.1 18 Oeste 41 Noroeste 0 -- -- 72
2019-11-14 17:00:00 7.4 27 Oeste 42 Oeste 0 -- -- 69
2019-11-14 16:00:00 5.5 4 Oeste 24 Oeste 0.4 -- -- 92
2019-11-14 15:00:00 5.8 15 Oeste 35 Oeste 0 -- -- 87
2019-11-14 14:00:00 6 21 Oeste 30 Oeste 0 -- -- 85
2019-11-14 13:00:00 4.1 10 Oeste 27 Oeste 0.2 -- -- 94
2019-11-14 12:00:00 3.4 10 Oeste 34 Norte 1 -- -- 95
2019-11-14 11:00:00 4 19 Noroeste 59 Oeste 1.6 -- -- 94
2019-11-14 10:00:00 6.6 29 Oeste 47 Oeste 0.2 -- -- 96
2019-11-14 09:00:00 6.4 30 Oeste 47 Oeste 0 -- -- 91
2019-11-14 08:00:00 6.2 27 Oeste 48 Oeste 0 -- -- 91
2019-11-14 07:00:00 6.4 30 Oeste 52 Oeste 0 -- -- 89
2019-11-14 06:00:00 7.1 32 Oeste 48 Oeste 0 -- -- 89
2019-11-14 05:00:00 7.6 35 Oeste 57 Oeste 0 -- -- 89
2019-11-14 04:00:00 8.4 32 Oeste 51 Oeste 0 -- -- 90
2019-11-14 03:00:00 8.8 24 Oeste 37 Oeste 0 -- -- 93
2019-11-14 02:00:00 8.7 19 Oeste 27 Oeste 0 -- -- 94
2019-11-14 01:00:00 8 16 Oeste 24 Sudoeste 0 -- -- 95
2019-11-14 00:00:00 7.5 16 Oeste 22 Oeste 0 -- -- 93
2019-11-13 23:00:00 7.9 16 Oeste 21 Oeste 0 -- -- 90
2019-11-13 22:00:00 8 10 Oeste 18 Noroeste 0 -- -- 85
2019-11-13 21:00:00 9.3 10 Oeste 14 Noroeste 0 -- -- 81
2019-11-13 20:00:00 9.4 8 Oeste 10 Norte 0 -- -- 80
2019-11-13 19:00:00 10.1 5 Noroeste 8 Norte 0 -- -- 74
2019-11-13 18:00:00 11.9 3 Noroeste 16 Norte 0 -- -- 69
2019-11-13 17:00:00 14.5 9 Noroeste 26 Noroeste 0 -- -- 57
2019-11-13 16:00:00 15.1 12 Noroeste 22 Norte 0 -- -- 54
2019-11-13 15:00:00 14.5 12 Noroeste 28 Norte 0 -- -- 62
2019-11-13 14:00:00 14 15 Norte 37 Norte 0 -- -- 65
2019-11-13 13:00:00 13.6 19 Noroeste 38 Noroeste 0.2 -- -- 75
2019-11-13 12:00:00 11.1 22 Noroeste 44 Oeste 1.6 -- -- 95
2019-11-13 11:00:00 10.8 24 Oeste 46 Oeste 0.4 -- -- 95
2019-11-13 10:00:00 9.9 24 Oeste 40 Oeste 0.2 -- -- 98
2019-11-13 09:00:00 9.2 31 Oeste 48 Oeste 1 -- -- 98
2019-11-13 08:00:00 8.9 24 Oeste 41 Oeste 1.4 -- -- 97
2019-11-13 07:00:00 8.8 23 Oeste 40 Oeste 0 -- -- 97
2019-11-13 06:00:00 8.7 25 Oeste 43 Oeste 0.2 -- -- 97
2019-11-13 05:00:00 8.2 28 Oeste 43 Sudoeste 0.2 -- -- 98
2019-11-13 04:00:00 7.2 21 Oeste 40 Oeste 1.2 -- -- 97
2019-11-13 03:00:00 7.1 27 Oeste 40 Sudoeste 0 -- -- 90
2019-11-13 02:00:00 6.7 24 Oeste 35 Oeste 0 -- -- 86
2019-11-13 01:00:00 6.7 20 Oeste 33 Oeste 0 -- -- 85
2019-11-13 00:00:00 6.2 19 Oeste 28 Oeste 0 -- -- 87
2019-11-12 23:00:00 6.4 17 Oeste 27 Oeste 0 -- -- 83
2019-11-12 22:00:00 6.7 15 Oeste 26 Oeste 0 -- -- 78
2019-11-12 21:00:00 6 9 Oeste 13 Oeste 0 -- -- 73
2019-11-12 20:00:00 5.7 4 Oeste 13 Noroeste 0 -- -- 74
2019-11-12 19:00:00 6.5 8 Oeste 17 Oeste 0 -- -- 71
2019-11-12 18:00:00 8.4 11 Oeste 26 Oeste 0 -- -- 63
2019-11-12 17:00:00 10.5 20 Noroeste 31 Oeste 0 -- -- 56
2019-11-12 16:00:00 10.9 17 Noroeste 31 Noroeste 0 -- -- 53
2019-11-12 15:00:00 11 21 Noroeste 33 Noroeste 0 -- -- 53
2019-11-12 14:00:00 11.2 16 Noroeste 31 Norte 0 -- -- 54
2019-11-12 13:00:00 9.8 16 Norte 29 Norte 0 -- -- 58
2019-11-12 12:00:00 9.3 21 Norte 35 Norte 0 -- -- 61
2019-11-12 11:00:00 8.2 19 Norte 35 Oeste 0 -- -- 64
2019-11-12 10:00:00 6.7 10 Norte 20 Noroeste 0 -- -- 69
2019-11-12 09:00:00 2.4 5 Oeste 10 Oeste 0 -- -- 89
2019-11-12 08:00:00 2.3 0 Calma 10 Noroeste 0 -- -- 85
2019-11-12 07:00:00 3.3 5 Noroeste 18 Nordeste 0 -- -- 82
2019-11-12 06:00:00 4.6 11 Nordeste 25 Nordeste 0 -- -- 75
2019-11-12 05:00:00 4.1 8 Nordeste 27 Norte 0 -- -- 79
2019-11-12 04:00:00 4.1 21 Norte 29 Norte 0 -- -- 81
2019-11-12 03:00:00 3.4 9 Norte 19 Norte 0 -- -- 85
2019-11-12 02:00:00 3.4 7 Norte 24 Norte 0 -- -- 83
2019-11-12 01:00:00 4.5 17 Norte 29 Norte 0 -- -- 79
2019-11-12 00:00:00 4.6 14 Norte 28 Norte 0 -- -- 82
2019-11-11 23:00:00 5.6 15 Norte 28 Norte 0 -- -- 83
2019-11-11 22:00:00 6.2 13 Norte 32 Noroeste 0 -- -- 89
2019-11-11 21:00:00 6.8 17 Noroeste 29 Norte 0 -- -- 90
2019-11-11 20:00:00 6.7 11 Noroeste 19 Noroeste 0 -- -- 92
2019-11-11 19:00:00 7.3 8 Noroeste 19 Noroeste 0 -- -- 90
2019-11-11 18:00:00 8.2 12 Noroeste 25 Noroeste 0 -- -- 83
2019-11-11 17:00:00 8.7 17 Noroeste 28 Oeste 0 -- -- 79
2019-11-11 16:00:00 9.4 20 Noroeste 31 Noroeste 0 -- -- 73
2019-11-11 15:00:00 9 18 Noroeste 28 Oeste 0 -- -- 76
2019-11-11 14:00:00 8.6 16 Noroeste 26 Noroeste 0 -- -- 75
2019-11-11 13:00:00 7.7 16 Noroeste 32 Oeste 0 -- -- 77
2019-11-11 12:00:00 7.2 22 Noroeste 34 Oeste 0 -- -- 77
2019-11-11 11:00:00 6.7 16 Noroeste 28 Noroeste 0 -- -- 78
2019-11-11 10:00:00 5.4 13 Noroeste 23 Noroeste 0 -- -- 82
2019-11-11 09:00:00 4.3 9 Noroeste 18 Noroeste 0 -- -- 85
2019-11-11 08:00:00 2.4 6 Noroeste 11 Noroeste 0 -- -- 94
2019-11-11 07:00:00 1.8 6 Noroeste 15 Oeste 0 -- -- 94
2019-11-11 06:00:00 1.6 8 Oeste 18 Oeste 0 -- -- 94
2019-11-11 05:00:00 2.1 6 Noroeste 13 Noroeste 0 -- -- 87
2019-11-11 04:00:00 1.5 0 Calma 8 Nordeste 0 -- -- 87
2019-11-11 03:00:00 2.2 2 Sudeste 19 Norte 0 -- -- 82
2019-11-11 02:00:00 2.8 9 Norte 30 Noroeste 0 -- -- 81
2019-11-11 01:00:00 2.9 17 Norte 31 Noroeste 0 -- -- 82
2019-11-11 00:00:00 2.6 13 Noroeste 31 Norte 0 -- -- 84
2019-11-10 23:00:00 3.2 19 Norte 33 Norte 0 -- -- 83
2019-11-10 22:00:00 3.2 16 Norte 29 Noroeste 0 -- -- 86
2019-11-10 21:00:00 3.5 18 Norte 32 Noroeste 0 -- -- 87
2019-11-10 20:00:00 3.6 18 Norte 47 Norte 0 -- -- 87
2019-11-10 19:00:00 5.2 17 Noroeste 34 Noroeste 0 -- -- 80
2019-11-10 18:00:00 6 22 Noroeste 45 Noroeste 0 -- -- 75
2019-11-10 17:00:00 8.1 27 Noroeste 52 Norte 0 -- -- 64
2019-11-10 16:00:00 8.4 31 Noroeste 53 Noroeste 0 -- -- 62
2019-11-10 15:00:00 9 31 Noroeste 49 Noroeste 0 -- -- 62
2019-11-10 14:00:00 9.2 32 Noroeste 47 Noroeste 0 -- -- 61
2019-11-10 13:00:00 8.6 28 Noroeste 46 Noroeste 0 -- -- 59
2019-11-10 12:00:00 7.7 25 Noroeste 44 Noroeste 0 -- -- 60
2019-11-10 11:00:00 6.7 20 Noroeste 41 Noroeste 0 -- -- 65
2019-11-10 10:00:00 5.6 18 Norte 37 Noroeste 0 -- -- 71
2019-11-10 09:00:00 3.8 18 Noroeste 32 Noroeste 0 -- -- 80
2019-11-10 08:00:00 3.4 12 Noroeste 22 Noroeste 0 -- -- 83
2019-11-10 07:00:00 3.3 10 Noroeste 19 Noroeste 0 -- -- 89
2019-11-10 06:00:00 4.4 10 Noroeste 21 Noroeste 0 -- -- 87
2019-11-10 05:00:00 5.2 13 Noroeste 29 Noroeste 0 -- -- 91
2019-11-10 04:00:00 5.9 22 Noroeste 38 Noroeste 0 -- -- 88
2019-11-10 03:00:00 6.3 18 Noroeste 35 Noroeste 0 -- -- 89
2019-11-10 02:00:00 7.2 25 Noroeste 41 Oeste 0 -- -- 93
2019-11-10 01:00:00 7.5 21 Oeste 31 Oeste 0.2 -- -- 98
2019-11-10 00:00:00 7.1 19 Oeste 29 Oeste 0 -- -- 98